Time;durP1;ratioP1;P1;durP2;ratioP2;P2;SDS_P1;SDS_P2;PMS_P1;PMS_P2;Temp;Humidity;BMP_temperature;BMP_pressure;BME280_temperature;BME280_humidity;BME280_pressure;Samples;Min_cycle;Max_cycle;Signal;HPM_P1;HPM_P2
2021/07/28 00:00:27;;;;;;;36.40;19.27;;;19.50;99.90;;;;;;5137215;27;20270;-66
2021/07/28 00:03:15;;;;;;;23.83;13.63;;;19.40;99.90;;;;;;5133205;27;20198;-66
2021/07/28 00:06:03;;;;;;;37.23;19.63;;;19.40;99.90;;;;;;5131274;27;20728;-66
2021/07/28 00:08:50;;;;;;;64.50;32.17;;;19.40;99.90;;;;;;5133054;27;20201;-66
2021/07/28 00:11:38;;;;;;;47.20;28.20;;;19.30;99.90;;;;;;5151515;27;20205;-66
2021/07/28 00:14:26;;;;;;;39.97;20.63;;;19.20;99.90;;;;;;5139485;27;20532;-66
2021/07/28 00:17:15;;;;;;;38.60;21.07;;;19.20;99.90;;;;;;5131916;27;20221;-66
2021/07/28 00:20:04;;;;;;;29.23;16.93;;;19.10;99.90;;;;;;5120585;27;20276;-66
2021/07/28 00:25:56;;;;;;;19.93;12.20;;;19.00;99.90;;;;;;5146388;27;20560;-66
2021/07/28 00:28:44;;;;;;;20.93;12.40;;;19.10;99.90;;;;;;5135840;27;20206;-66
2021/07/28 00:31:32;;;;;;;15.30;10.27;;;19.00;99.90;;;;;;5136309;27;20201;-66
2021/07/28 00:34:21;;;;;;;19.37;10.60;;;19.00;99.90;;;;;;5136205;27;20202;-66
2021/07/28 00:37:08;;;;;;;18.83;10.97;;;19.00;99.90;;;;;;5134864;27;20205;-66
2021/07/28 00:39:56;;;;;;;26.43;10.53;;;19.00;99.90;;;;;;5145248;27;20202;-66
2021/07/28 00:42:44;;;;;;;17.93;9.87;;;18.90;99.90;;;;;;5149978;27;20590;-66
2021/07/28 00:45:31;;;;;;;28.30;10.47;;;18.90;99.90;;;;;;5135940;27;20229;-66
2021/07/28 00:48:19;;;;;;;26.90;10.97;;;18.90;99.90;;;;;;5135677;27;20540;-66
2021/07/28 00:51:08;;;;;;;20.07;10.87;;;18.90;99.90;;;;;;5145583;27;20655;-66
2021/07/28 00:53:56;;;;;;;28.47;11.17;;;18.80;99.90;;;;;;5140737;27;20187;-66
2021/07/28 00:56:44;;;;;;;19.30;11.37;;;18.80;99.90;;;;;;5136138;27;20205;-66
2021/07/28 00:59:31;;;;;;;25.03;13.80;;;18.80;99.90;;;;;;5115256;27;20203;-66
2021/07/28 01:02:19;;;;;;;28.47;14.37;;;18.80;99.90;;;;;;5115552;27;20690;-66
2021/07/28 01:05:08;;;;;;;43.60;21.33;;;18.70;99.90;;;;;;5114654;27;20226;-66
2021/07/28 01:07:57;;;;;;;43.53;22.50;;;18.60;99.90;;;;;;5122698;27;20199;-66
2021/07/28 01:10:46;;;;;;;33.87;17.87;;;18.70;99.90;;;;;;5135081;27;20280;-66
2021/07/28 01:13:36;;;;;;;36.07;16.77;;;18.60;99.90;;;;;;5116807;27;20203;-66
2021/07/28 01:16:25;;;;;;;35.13;19.27;;;18.60;99.90;;;;;;5123454;27;20201;-66
2021/07/28 01:19:13;;;;;;;36.53;20.93;;;18.60;99.90;;;;;;5114340;28;20233;-66
2021/07/28 01:22:02;;;;;;;46.13;23.67;;;18.60;99.90;;;;;;5114438;27;20237;-66
2021/07/28 01:24:51;;;;;;;33.43;18.83;;;18.60;99.90;;;;;;5121748;27;20202;-66
2021/07/28 01:27:39;;;;;;;39.33;20.40;;;18.60;99.90;;;;;;5114155;27;20205;-66
2021/07/28 01:30:26;;;;;;;37.33;18.57;;;18.60;99.90;;;;;;5132529;27;20210;-66
2021/07/28 01:33:14;;;;;;;35.97;17.03;;;18.50;99.90;;;;;;5133203;27;20248;-66
2021/07/28 01:36:02;;;;;;;37.17;17.83;;;18.60;99.90;;;;;;5114237;27;20206;-66
2021/07/28 01:38:50;;;;;;;20.47;12.70;;;18.50;99.90;;;;;;5116081;27;20229;-66
2021/07/28 01:41:39;;;;;;;23.93;11.30;;;18.50;99.90;;;;;;5114121;27;20206;-66
2021/07/28 01:44:27;;;;;;;19.97;12.47;;;18.50;99.90;;;;;;5120979;27;20322;-66
2021/07/28 01:47:14;;;;;;;23.93;14.47;;;18.50;99.90;;;;;;5113991;28;20222;-67
2021/07/28 01:50:02;;;;;;;22.30;12.87;;;18.50;99.90;;;;;;5113873;27;20195;-66
2021/07/28 01:52:49;;;;;;;29.63;13.87;;;18.50;99.90;;;;;;5113731;27;20285;-66
2021/07/28 01:55:37;;;;;;;28.87;16.03;;;18.50;99.90;;;;;;5113136;27;20205;-66
2021/07/28 01:58:26;;;;;;;47.13;23.57;;;18.50;99.90;;;;;;5114301;27;20723;-66
2021/07/28 02:01:14;;;;;;;27.13;11.87;;;18.50;99.90;;;;;;5113682;27;20191;-66
2021/07/28 02:04:01;;;;;;;32.83;13.30;;;18.40;99.90;;;;;;5114889;27;20652;-66
2021/07/28 02:06:49;;;;;;;41.47;18.17;;;18.40;99.90;;;;;;5113445;27;20198;-66
2021/07/28 02:09:37;;;;;;;46.43;21.60;;;18.40;99.90;;;;;;5114476;27;20183;-66
2021/07/28 02:12:24;;;;;;;31.03;14.13;;;18.40;99.90;;;;;;5115684;27;20205;-66
2021/07/28 02:15:14;;;;;;;56.97;23.10;;;18.40;99.90;;;;;;5133296;27;20212;-66
2021/07/28 02:18:01;;;;;;;47.20;20.37;;;18.40;99.90;;;;;;5133241;27;20223;-66
2021/07/28 02:20:49;;;;;;;36.60;15.17;;;18.40;99.90;;;;;;5133445;27;20658;-66
2021/07/28 02:23:38;;;;;;;23.93;13.43;;;18.30;99.90;;;;;;5121725;27;20198;-67
2021/07/28 02:26:25;;;;;;;26.67;13.43;;;18.30;99.90;;;;;;5116628;27;20199;-66
2021/07/28 02:29:13;;;;;;;23.97;11.43;;;18.30;99.90;;;;;;5113018;28;20209;-67
2021/07/28 02:32:02;;;;;;;23.30;10.77;;;18.30;99.90;;;;;;5114615;27;20210;-66
2021/07/28 02:34:50;;;;;;;19.10;10.97;;;18.20;99.90;;;;;;5132825;27;20201;-66
2021/07/28 02:37:38;;;;;;;20.67;12.20;;;18.20;99.90;;;;;;5128962;27;20224;-67
2021/07/28 02:40:25;;;;;;;21.57;11.80;;;18.20;99.90;;;;;;5113271;27;20691;-66
2021/07/28 02:43:13;;;;;;;23.63;11.17;;;18.20;99.90;;;;;;5121541;27;20571;-66
2021/07/28 02:46:01;;;;;;;18.57;11.67;;;18.20;99.90;;;;;;5117673;27;20221;-66
2021/07/28 02:48:50;;;;;;;53.93;21.93;;;18.10;99.90;;;;;;5132564;27;20191;-67
2021/07/28 02:51:38;;;;;;;42.20;19.47;;;18.00;99.90;;;;;;5117914;27;20668;-66
2021/07/28 02:54:25;;;;;;;48.43;20.23;;;18.00;99.90;;;;;;5113748;27;20204;-66
2021/07/28 02:57:13;;;;;;;29.43;13.60;;;18.00;99.90;;;;;;5121348;27;20241;-66
2021/07/28 03:00:01;;;;;;;25.73;13.13;;;18.00;99.90;;;;;;5112030;27;20240;-66
2021/07/28 03:03:08;;;;;;;31.60;14.67;;;17.90;99.90;;;;;;5112490;28;20200;-66
2021/07/28 03:05:57;;;;;;;33.10;16.10;;;17.90;99.90;;;;;;5112860;28;20227;-66
2021/07/28 03:09:28;;;;;;;31.93;15.87;;;17.90;99.90;;;;;;5112583;28;20199;-66
2021/07/28 03:12:15;;;;;;;47.67;24.83;;;17.90;99.90;;;;;;5112276;28;20572;-66
2021/07/28 03:15:03;;;;;;;45.10;23.30;;;17.80;99.90;;;;;;5110810;28;20218;-66
2021/07/28 03:17:51;;;;;;;37.63;19.77;;;17.80;99.90;;;;;;5111381;28;20228;-66
2021/07/28 03:20:38;;;;;;;40.87;19.20;;;17.80;99.90;;;;;;5112198;28;20250;-66
2021/07/28 03:23:28;;;;;;;38.30;19.10;;;17.80;99.90;;;;;;5112564;28;20198;-66
2021/07/28 03:26:15;;;;;;;30.77;16.83;;;17.80;99.90;;;;;;5112334;28;20662;-66
2021/07/28 03:29:03;;;;;;;32.47;16.73;;;17.80;99.90;;;;;;5112511;28;20197;-66
2021/07/28 03:31:51;;;;;;;37.23;17.27;;;17.80;99.90;;;;;;5112029;28;20235;-66
2021/07/28 03:34:38;;;;;;;35.83;18.63;;;17.80;99.90;;;;;;5111477;28;20582;-66
2021/07/28 03:37:26;;;;;;;31.30;15.03;;;17.90;99.90;;;;;;5110075;28;20193;-67
2021/07/28 03:40:16;;;;;;;29.20;16.30;;;17.90;99.90;;;;;;5111999;28;20690;-66
2021/07/28 03:43:04;;;;;;;29.93;16.10;;;17.90;99.90;;;;;;5112236;28;20193;-66
2021/07/28 03:45:51;;;;;;;31.93;17.20;;;18.00;99.90;;;;;;5113244;27;20222;-66
2021/07/28 03:48:39;;;;;;;35.03;15.47;;;18.00;99.90;;;;;;5131778;27;20196;-66
2021/07/28 03:51:27;;;;;;;32.80;16.97;;;18.00;99.90;;;;;;5131222;27;20197;-66
2021/07/28 03:54:14;;;;;;;25.13;13.60;;;18.00;99.90;;;;;;5130975;27;20203;-66
2021/07/28 03:57:04;;;;;;;30.60;13.00;;;18.10;99.90;;;;;;5122798;27;20195;-66
2021/07/28 03:59:51;;;;;;;60.63;26.17;;;18.30;99.90;;;;;;5111512;28;20266;-66
2021/07/28 04:02:39;;;;;;;64.97;27.97;;;18.30;99.90;;;;;;5111428;28;20211;-66
2021/07/28 04:05:27;;;;;;;82.23;44.37;;;18.40;99.90;;;;;;5118036;28;20843;-66
2021/07/28 04:08:14;;;;;;;49.23;26.53;;;18.40;99.90;;;;;;5111636;28;20204;-66
2021/07/28 04:11:02;;;;;;;35.30;16.93;;;18.50;99.90;;;;;;5111297;28;20201;-66
2021/07/28 04:13:51;;;;;;;21.60;10.97;;;18.60;99.90;;;;;;5111973;28;20201;-66
2021/07/28 04:16:38;;;;;;;19.23;10.50;;;18.70;99.90;;;;;;5121155;28;20197;-66
2021/07/28 04:19:26;;;;;;;22.90;12.90;;;18.70;99.90;;;;;;5128731;28;20584;-66
2021/07/28 04:22:14;;;;;;;36.57;20.73;;;18.80;99.90;;;;;;5111364;28;20652;-66
2021/07/28 04:25:04;;;;;;;307.80;112.37;;;18.80;99.90;;;;;;5120180;28;20216;-66
2021/07/28 04:27:51;;;;;;;78.80;37.20;;;18.90;99.90;;;;;;5131187;28;20237;-66
2021/07/28 04:30:41;;;;;;;57.87;24.77;;;19.00;99.90;;;;;;5131614;28;20216;-66
2021/07/28 04:33:28;;;;;;;37.70;18.33;;;19.10;99.90;;;;;;5131296;28;20202;-66
2021/07/28 04:36:16;;;;;;;20.80;11.63;;;19.20;99.90;;;;;;5124413;28;20194;-66
2021/07/28 04:39:04;;;;;;;50.83;24.77;;;19.20;99.90;;;;;;5131266;28;20652;-66
2021/07/28 04:41:51;;;;;;;24.63;12.93;;;19.30;99.90;;;;;;5111636;28;20225;-66
2021/07/28 04:44:39;;;;;;;19.13;11.00;;;19.50;99.90;;;;;;5111007;28;20240;-66
2021/07/28 04:47:29;;;;;;;15.63;10.17;;;19.70;99.90;;;;;;5125183;28;20206;-66
2021/07/28 04:50:16;;;;;;;17.97;9.87;;;19.80;99.90;;;;;;5112298;28;20648;-66
2021/07/28 04:53:04;;;;;;;16.47;9.83;;;19.90;99.90;;;;;;5110372;28;20203;-66
2021/07/28 04:55:53;;;;;;;15.20;9.60;;;20.10;99.90;;;;;;5123819;28;20195;-66
2021/07/28 04:58:40;;;;;;;27.67;12.13;;;20.30;99.90;;;;;;5122789;28;20237;-66
2021/07/28 05:01:28;;;;;;;21.57;11.37;;;20.40;99.90;;;;;;5114828;28;20244;-66
2021/07/28 05:04:17;;;;;;;21.63;11.13;;;20.50;99.90;;;;;;5129004;28;20637;-66
2021/07/28 05:07:05;;;;;;;24.00;11.80;;;20.70;99.90;;;;;;5131477;27;20202;-66
2021/07/28 05:09:53;;;;;;;20.27;11.50;;;20.70;99.90;;;;;;5134544;27;20195;-66
2021/07/28 05:12:40;;;;;;;18.07;10.83;;;20.80;99.90;;;;;;5132898;27;20202;-66
2021/07/28 05:15:28;;;;;;;21.00;10.03;;;21.00;99.90;;;;;;5134843;27;20217;-66
2021/07/28 05:18:16;;;;;;;17.97;10.10;;;21.10;99.90;;;;;;5115360;27;20206;-66
2021/07/28 05:21:05;;;;;;;14.63;9.40;;;21.20;99.90;;;;;;5114646;27;20210;-66
2021/07/28 05:23:52;;;;;;;14.97;9.43;;;21.30;99.90;;;;;;5117615;27;20199;-66
2021/07/28 05:26:40;;;;;;;13.57;9.20;;;21.40;99.90;;;;;;5114702;27;20203;-66
2021/07/28 05:29:28;;;;;;;21.10;8.97;;;21.60;99.90;;;;;;5114745;28;20193;-66
2021/07/28 05:32:16;;;;;;;16.47;8.60;;;21.70;99.90;;;;;;5124789;27;20738;-66
2021/07/28 05:35:03;;;;;;;13.47;8.10;;;21.90;99.90;;;;;;5134554;27;20278;-66
2021/07/28 05:37:58;;;;;;;14.80;8.33;;;22.00;99.90;;;;;;5119905;27;20240;-66
2021/07/28 05:40:46;;;;;;;12.40;7.97;;;22.10;99.90;;;;;;5133376;27;20214;-66
2021/07/28 05:43:33;;;;;;;13.50;7.70;;;22.20;99.90;;;;;;5134066;27;20657;-66
2021/07/28 05:46:21;;;;;;;12.23;7.37;;;22.30;99.90;;;;;;5116941;27;20309;-66
2021/07/28 05:49:09;;;;;;;15.60;7.80;;;22.50;99.90;;;;;;5127391;27;20190;-66
2021/07/28 05:51:56;;;;;;;16.53;8.27;;;22.70;99.90;;;;;;5123805;27;20617;-66
2021/07/28 05:54:46;;;;;;;10.30;7.47;;;22.80;99.90;;;;;;5129593;27;20560;-66
2021/07/28 05:57:33;;;;;;;11.17;7.33;;;22.90;99.90;;;;;;5122554;27;20230;-66
2021/07/28 06:00:21;;;;;;;13.57;7.07;;;23.10;99.90;;;;;;5132905;27;20680;-66
2021/07/28 06:03:09;;;;;;;15.47;7.37;;;23.10;99.90;;;;;;5120370;27;20589;-66
2021/07/28 06:05:59;;;;;;;13.10;7.13;;;23.30;99.90;;;;;;5133736;27;20293;-66
2021/07/28 06:08:47;;;;;;;15.00;7.50;;;23.40;99.90;;;;;;5134011;27;20195;-66
2021/07/28 06:11:36;;;;;;;12.97;7.20;;;23.50;99.90;;;;;;5114112;27;20195;-66
2021/07/28 06:14:23;;;;;;;14.17;7.57;;;23.60;99.90;;;;;;5131617;27;20198;-66
2021/07/28 06:17:11;;;;;;;9.27;6.10;;;23.80;99.90;;;;;;5120018;27;20526;-66
2021/07/28 06:19:59;;;;;;;15.90;6.07;;;23.90;99.90;;;;;;5126796;27;20375;-66
2021/07/28 06:22:46;;;;;;;12.80;5.87;;;24.00;99.90;;;;;;5115012;27;20203;-66
2021/07/28 06:25:34;;;;;;;11.70;5.37;;;24.10;99.90;;;;;;5125433;27;20199;-66
2021/07/28 06:28:23;;;;;;;12.43;5.30;;;24.00;99.90;;;;;;5132164;27;20281;-66
2021/07/28 06:31:11;;;;;;;9.43;5.03;;;24.10;99.90;;;;;;5132577;27;20796;-66
2021/07/28 06:33:59;;;;;;;10.80;5.47;;;24.20;99.90;;;;;;5117605;27;20225;-66
2021/07/28 06:36:46;;;;;;;11.15;5.68;;;24.30;99.90;;;;;;5114320;27;20207;-66
2021/07/28 06:39:34;;;;;;;9.57;4.82;;;24.40;99.90;;;;;;5133550;27;20270;-66
2021/07/28 06:42:21;;;;;;;10.88;4.88;;;24.40;99.90;;;;;;5115079;27;20195;-67
2021/07/28 06:45:12;;;;;;;11.23;5.25;;;24.50;99.90;;;;;;5125869;27;20226;-66
2021/07/28 06:47:59;;;;;;;13.27;5.35;;;24.50;99.90;;;;;;5121592;27;20234;-66
2021/07/28 06:50:47;;;;;;;10.63;5.30;;;24.60;99.90;;;;;;5113425;28;20191;-67
2021/07/28 06:53:35;;;;;;;11.02;4.93;;;24.70;99.90;;;;;;5126131;27;20581;-66
2021/07/28 06:56:23;;;;;;;10.40;4.93;;;24.90;99.90;;;;;;5129149;27;20543;-66
2021/07/28 06:59:10;;;;;;;11.63;5.30;;;25.10;99.90;;;;;;5112232;28;20286;-66
2021/07/28 07:02:00;;;;;;;10.20;5.05;;;25.20;99.90;;;;;;5112573;28;20207;-66
2021/07/28 07:04:47;;;;;;;10.95;5.18;;;25.30;99.90;;;;;;5111578;28;20207;-66
2021/07/28 07:07:35;;;;;;;9.32;4.95;;;25.50;99.90;;;;;;5112510;28;20203;-66
2021/07/28 07:10:23;;;;;;;14.25;5.20;;;25.60;99.90;;;;;;5111113;28;20256;-66
2021/07/28 07:13:10;;;;;;;9.98;5.25;;;25.70;99.90;;;;;;5112369;28;20277;-66
2021/07/28 07:15:59;;;;;;;10.23;5.05;;;25.80;99.90;;;;;;5113709;27;20753;-66
2021/07/28 07:18:48;;;;;;;14.10;6.00;;;25.90;99.90;;;;;;5126932;27;20199;-67
2021/07/28 07:21:36;;;;;;;10.00;5.35;;;26.10;99.90;;;;;;5121247;27;20195;-66
2021/07/28 07:24:24;;;;;;;13.32;5.60;;;26.20;99.90;;;;;;5117709;27;20308;-67
2021/07/28 07:27:11;;;;;;;10.25;5.15;;;26.40;99.90;;;;;;5124639;27;20665;-67
2021/07/28 07:29:59;;;;;;;10.05;4.82;;;26.40;99.90;;;;;;5131235;27;20197;-66
2021/07/28 07:33:36;;;;;;;15.05;5.63;;;26.50;99.90;;;;;;5123903;27;20247;-67
2021/07/28 07:35:56;;;;;;;14.75;5.85;;;26.40;99.90;;;;;;5112515;27;20733;-67
2021/07/28 07:38:44;;;;;;;11.65;5.95;;;26.60;99.90;;;;;;5111949;28;20540;-66
2021/07/28 07:41:32;;;;;;;10.07;4.95;;;26.80;99.90;;;;;;5116948;27;20194;-67
2021/07/28 07:44:19;;;;;;;14.80;5.55;;;26.90;99.90;;;;;;5131476;27;20203;-67
2021/07/28 07:47:07;;;;;;;9.45;5.15;;;27.10;99.90;;;;;;5130717;27;20210;-66
2021/07/28 07:49:55;;;;;;;11.48;5.63;;;27.20;99.90;;;;;;5115018;27;20551;-66
2021/07/28 07:52:44;;;;;;;8.65;4.35;;;27.30;99.90;;;;;;5113399;28;20191;-67
2021/07/28 07:55:32;;;;;;;10.63;5.03;;;27.30;99.90;;;;;;5121827;28;20198;-66
2021/07/28 07:58:19;;;;;;;11.50;5.55;;;27.40;99.90;;;;;;5130445;27;20234;-66
2021/07/28 08:01:08;;;;;;;8.60;5.40;;;27.60;99.90;;;;;;5113312;28;20207;-66
2021/07/28 08:03:56;;;;;;;11.55;5.47;;;27.80;99.90;;;;;;5111399;28;20199;-66
2021/07/28 08:06:43;;;;;;;14.68;5.30;;;27.90;99.90;;;;;;5130399;28;20214;-66
2021/07/28 08:09:33;;;;;;;13.68;5.25;;;27.80;99.90;;;;;;5126672;28;20214;-66
2021/07/28 08:12:20;;;;;;;9.55;4.95;;;27.90;99.90;;;;;;5123196;27;20202;-66
2021/07/28 08:15:09;;;;;;;15.88;5.15;;;28.20;99.90;;;;;;5129316;28;20357;-66
2021/07/28 08:17:56;;;;;;;11.20;4.47;;;28.20;99.90;;;;;;5123475;28;20202;-66
2021/07/28 08:20:44;;;;;;;11.85;5.10;;;28.30;99.90;;;;;;5111796;28;20222;-67
2021/07/28 08:23:32;;;;;;;10.70;4.90;;;28.50;99.90;;;;;;5124086;28;20194;-66
2021/07/28 08:26:21;;;;;;;16.73;5.38;;;28.60;99.90;;;;;;5112581;28;20191;-66
2021/07/28 08:29:10;;;;;;;13.02;4.93;;;28.90;99.90;;;;;;5111128;28;20282;-66
2021/07/28 08:31:58;;;;;;;13.80;4.93;;;28.90;99.90;;;;;;5118148;28;20198;-67
2021/07/28 08:34:46;;;;;;;11.73;5.20;;;29.00;99.90;;;;;;5110581;28;20195;-66
2021/07/28 08:37:33;;;;;;;13.93;5.28;;;29.20;99.90;;;;;;5125086;28;20708;-66
2021/07/28 08:40:21;;;;;;;14.00;4.68;;;29.40;99.90;;;;;;5115676;28;20211;-66
2021/07/28 08:43:10;;;;;;;12.32;5.18;;;29.60;99.90;;;;;;5115763;28;20195;-67
2021/07/28 08:45:59;;;;;;;12.95;5.13;;;29.60;99.90;;;;;;5117943;27;20219;-66
2021/07/28 08:48:46;;;;;;;13.57;4.72;;;29.50;99.90;;;;;;5126047;27;20205;-66
2021/07/28 08:51:34;;;;;;;13.93;5.32;;;29.50;99.90;;;;;;5126474;27;20201;-66
2021/07/28 08:54:22;;;;;;;12.70;5.20;;;29.60;99.90;;;;;;5126286;27;20196;-67
2021/07/28 08:57:11;;;;;;;13.48;4.72;;;30.00;99.90;;;;;;5114272;28;20311;-67
2021/07/28 09:00:01;;;;;;;17.02;5.13;;;29.80;99.90;;;;;;5114024;28;20302;-66
2021/07/28 09:02:49;;;;;;;13.48;4.97;;;29.50;99.90;;;;;;5113465;28;20203;-67
2021/07/28 09:05:40;;;;;;;13.80;5.15;;;29.00;99.90;;;;;;5111821;28;20286;-67
2021/07/28 09:08:28;;;;;;;12.23;5.03;;;28.80;99.90;;;;;;5125178;27;20190;-67
2021/07/28 09:11:16;;;;;;;13.73;4.70;;;29.10;99.90;;;;;;5122429;27;20203;-66
2021/07/28 09:14:16;;;;;;;17.98;5.05;;;29.20;99.90;;;;;;5126261;27;20204;-66
2021/07/28 09:17:15;;;;;;;15.55;5.32;;;29.60;99.90;;;;;;5122869;27;20191;-66
2021/07/28 09:20:04;;;;;;;11.23;5.22;;;29.70;99.90;;;;;;5130879;27;20759;-66
2021/07/28 09:22:52;;;;;;;17.30;5.40;;;29.70;99.90;;;;;;5116571;27;20199;-66
2021/07/28 09:25:39;;;;;;;13.88;5.15;;;29.60;99.90;;;;;;5119233;27;21715;-66
2021/07/28 09:28:27;;;;;;;13.07;4.97;;;29.60;99.90;;;;;;5117036;27;20194;-66
2021/07/28 09:31:15;;;;;;;16.58;5.40;;;29.60;99.90;;;;;;5117967;27;20656;-66
2021/07/28 09:34:34;;;;;;;16.48;5.25;;;29.80;99.90;;;;;;5129463;27;20190;-66
2021/07/28 09:37:23;;;;;;;10.15;4.18;;;29.70;99.90;;;;;;5126796;27;20285;-67
2021/07/28 09:40:12;;;;;;;20.30;5.70;;;30.00;99.90;;;;;;5118433;27;20238;-67
2021/07/28 09:43:05;;;;;;;20.42;5.10;;;30.40;99.90;;;;;;5117763;27;20360;-67
2021/07/28 09:45:52;;;;;;;20.27;4.63;;;30.50;99.90;;;;;;5125401;27;20215;-66
2021/07/28 09:48:40;;;;;;;16.30;5.28;;;30.70;99.90;;;;;;5118976;27;20244;-67
2021/07/28 09:51:33;;;;;;;13.55;5.13;;;30.90;99.90;;;;;;5130992;27;20199;-67
2021/07/28 09:54:21;;;;;;;14.38;4.72;;;30.90;99.90;;;;;;5113785;27;20259;-67
2021/07/28 09:57:10;;;;;;;14.38;4.95;;;31.10;99.90;;;;;;5124701;27;20620;-66
2021/07/28 10:00:03;;;;;;;16.33;4.85;;;30.80;99.90;;;;;;5121999;27;20269;-66
2021/07/28 10:02:52;;;;;;;12.75;4.35;;;30.90;99.90;;;;;;5129860;27;20273;-67
2021/07/28 10:05:40;;;;;;;15.13;4.80;;;31.20;99.90;;;;;;5117828;27;20201;-67
2021/07/28 10:08:30;;;;;;;12.75;4.40;;;31.30;99.90;;;;;;5124723;27;20201;-67
2021/07/28 10:11:18;;;;;;;14.90;4.90;;;31.40;99.90;;;;;;5121422;27;20206;-66
2021/07/28 10:14:06;;;;;;;15.10;5.75;;;31.40;99.90;;;;;;5116655;27;20210;-67
2021/07/28 10:16:53;;;;;;;14.88;4.80;;;31.80;99.90;;;;;;5120457;27;20191;-67
2021/07/28 10:19:41;;;;;;;14.77;5.32;;;31.80;99.90;;;;;;5116825;27;20221;-67
2021/07/28 10:22:29;;;;;;;15.05;5.25;;;31.80;99.90;;;;;;5111486;28;20206;-67
2021/07/28 10:25:19;;;;;;;17.92;5.80;;;31.70;99.90;;;;;;5114068;27;20203;-67
2021/07/28 10:28:07;;;;;;;17.40;6.00;;;31.70;99.90;;;;;;5118791;27;20249;-66
2021/07/28 10:31:13;;;;;;;17.08;5.45;;;31.80;99.90;;;;;;5114337;27;20674;-67
2021/07/28 10:34:01;;;;;;;16.80;6.00;;;31.70;99.90;;;;;;5126594;27;20214;-66
2021/07/28 10:36:49;;;;;;;16.95;5.60;;;31.20;99.90;;;;;;5124918;27;20633;-67
2021/07/28 10:39:44;;;;;;;17.58;5.65;;;31.40;99.90;;;;;;5122656;27;20203;-67
2021/07/28 10:43:03;;;;;;;13.55;5.50;;;32.00;99.90;;;;;;5113043;27;20547;-67
2021/07/28 10:45:54;;;;;;;12.93;5.55;;;31.50;99.90;;;;;;5121765;27;20222;-67
2021/07/28 10:48:59;;;;;;;14.85;5.70;;;31.00;99.90;;;;;;5114818;27;20195;-66
2021/07/28 10:51:53;;;;;;;16.08;5.30;;;30.50;99.90;;;;;;5122038;27;20202;-66
2021/07/28 10:55:27;;;;;;;18.25;5.47;;;30.90;99.90;;;;;;5116135;27;20202;-66
2021/07/28 10:58:31;;;;;;;19.65;5.50;;;31.30;99.90;;;;;;5130203;27;20275;-66
2021/07/28 11:01:19;;;;;;;18.10;5.90;;;31.80;99.90;;;;;;5112745;28;20249;-66
2021/07/28 11:04:24;;;;;;;14.27;5.97;;;31.90;99.90;;;;;;5111946;28;20331;-66
2021/07/28 11:07:13;;;;;;;15.20;5.45;;;31.70;99.90;;;;;;5111742;28;20899;-66
2021/07/28 11:10:05;;;;;;;14.80;5.22;;;31.60;99.90;;;;;;5112780;27;20191;-66
2021/07/28 11:12:53;;;;;;;12.45;5.72;;;31.50;99.90;;;;;;5129818;27;20199;-66
2021/07/28 11:15:50;;;;;;;13.75;5.93;;;31.10;99.90;;;;;;5129906;27;20205;-66
2021/07/28 11:18:39;;;;;;;14.55;5.93;;;30.50;99.90;;;;;;5129828;27;20190;-67
2021/07/28 11:21:29;;;;;;;16.75;6.05;;;30.30;99.90;;;;;;5113668;27;20211;-66
2021/07/28 11:24:18;;;;;;;22.20;6.13;;;30.50;99.90;;;;;;5123108;27;20202;-66
2021/07/28 11:27:13;;;;;;;15.25;6.03;;;31.20;99.90;;;;;;5123845;27;20202;-66
2021/07/28 11:30:10;;;;;;;15.25;6.00;;;31.30;99.90;;;;;;5116254;27;20681;-67
2021/07/28 11:33:15;;;;;;;16.27;5.50;;;31.10;99.90;;;;;;5119042;27;20207;-66
2021/07/28 11:36:02;;;;;;;18.42;5.88;;;30.60;99.90;;;;;;5111174;28;20205;-66
2021/07/28 11:38:50;;;;;;;19.08;6.28;;;30.50;99.90;;;;;;5111830;28;20286;-66
2021/07/28 11:41:38;;;;;;;14.13;5.63;;;30.80;99.90;;;;;;5111216;28;20284;-66
2021/07/28 11:44:26;;;;;;;16.35;6.03;;;30.90;99.90;;;;;;5120190;27;20237;-66
2021/07/28 11:47:13;;;;;;;15.68;5.82;;;30.80;99.90;;;;;;5116255;27;20215;-66
2021/07/28 11:50:03;;;;;;;19.40;6.03;;;31.20;99.90;;;;;;5121740;27;20650;-66
2021/07/28 11:52:51;;;;;;;15.52;5.20;;;31.40;99.90;;;;;;5124636;27;20710;-66
2021/07/28 11:55:39;;;;;;;16.80;5.93;;;31.40;99.90;;;;;;5115714;27;20206;-66
2021/07/28 11:58:27;;;;;;;15.30;5.50;;;31.60;99.90;;;;;;5127269;27;20238;-66
2021/07/28 12:01:21;;;;;;;14.10;5.30;;;32.00;99.90;;;;;;5124819;27;20213;-66
2021/07/28 12:04:09;;;;;;;18.02;5.72;;;32.60;99.90;;;;;;5111998;28;20202;-66
2021/07/28 12:07:09;;;;;;;16.02;5.47;;;33.10;99.90;;;;;;5119014;28;20224;-66
2021/07/28 12:09:58;;;;;;;19.33;5.80;;;33.50;99.90;;;;;;5117787;28;20586;-66
2021/07/28 12:12:45;;;;;;;18.08;5.68;;;33.90;99.50;;;;;;5120413;28;20282;-67
2021/07/28 12:15:33;;;;;;;15.95;5.78;;;33.90;98.50;;;;;;5122670;27;20191;-66
2021/07/28 12:18:21;;;;;;;16.15;5.50;;;34.20;99.90;;;;;;5129024;27;20323;-67
2021/07/28 12:21:08;;;;;;;18.17;5.13;;;34.40;97.40;;;;;;5117366;27;20299;-67
2021/07/28 12:23:58;;;;;;;19.65;5.60;;;34.10;95.70;;;;;;5119397;27;20199;-66
2021/07/28 12:26:46;;;;;;;16.58;5.40;;;34.10;96.70;;;;;;5118279;27;20569;-66
2021/07/28 12:29:34;;;;;;;14.20;5.05;;;33.80;95.60;;;;;;5129409;27;20205;-66
2021/07/28 12:32:26;;;;;;;21.83;5.38;;;33.80;96.10;;;;;;5117696;27;20206;-66
2021/07/28 12:35:33;;;;;;;17.48;5.45;;;34.10;97.20;;;;;;5124690;27;20222;-66
2021/07/28 12:38:22;;;;;;;16.70;5.72;;;34.30;94.10;;;;;;5123755;27;20207;-66
2021/07/28 12:41:12;;;;;;;15.57;5.20;;;34.30;94.40;;;;;;5118596;27;20580;-67
2021/07/28 12:44:00;;;;;;;11.70;4.60;;;34.10;93.00;;;;;;5123480;27;20192;-66
2021/07/28 12:46:48;;;;;;;11.10;4.30;;;33.70;94.80;;;;;;5123063;27;20215;-66
2021/07/28 12:49:35;;;;;;;16.08;5.30;;;33.30;94.20;;;;;;5121022;27;20199;-66
2021/07/28 12:52:23;;;;;;;13.60;4.80;;;33.40;97.50;;;;;;5117657;27;20195;-66
2021/07/28 12:55:11;;;;;;;15.38;4.80;;;33.40;95.80;;;;;;5130393;27;20205;-66
2021/07/28 12:58:00;;;;;;;19.13;5.85;;;34.30;95.70;;;;;;5128456;27;20237;-66
2021/07/28 13:00:48;;;;;;;19.15;5.45;;;34.30;95.00;;;;;;5119514;27;20301;-66
2021/07/28 13:03:36;;;;;;;12.48;4.55;;;34.20;94.30;;;;;;5125577;27;20198;-66
2021/07/28 13:06:24;;;;;;;15.38;5.22;;;34.10;94.60;;;;;;5120733;27;20199;-66
2021/07/28 13:09:12;;;;;;;14.18;4.90;;;33.30;94.00;;;;;;5122505;27;20202;-66
2021/07/28 13:11:59;;;;;;;19.30;5.55;;;33.40;94.50;;;;;;5117243;27;20203;-66
2021/07/28 13:14:48;;;;;;;12.75;5.30;;;33.70;94.90;;;;;;5131723;27;20197;-66
2021/07/28 13:17:36;;;;;;;19.02;5.10;;;34.20;95.60;;;;;;5133480;27;20195;-67
2021/07/28 13:20:24;;;;;;;18.98;5.05;;;34.50;94.10;;;;;;5122108;27;20209;-66
2021/07/28 13:23:11;;;;;;;16.45;5.03;;;34.40;91.80;;;;;;5118396;27;20198;-67
2021/07/28 13:25:59;;;;;;;12.68;5.03;;;34.30;90.60;;;;;;5133449;27;20666;-66
2021/07/28 13:28:47;;;;;;;12.48;5.20;;;34.10;92.20;;;;;;5120041;27;20191;-66
2021/07/28 13:31:37;;;;;;;16.08;5.40;;;34.60;92.20;;;;;;5122645;27;20194;-66
2021/07/28 13:34:25;;;;;;;19.15;5.47;;;34.50;90.00;;;;;;5131243;27;20195;-67
2021/07/28 13:37:12;;;;;;;13.02;5.28;;;34.30;91.00;;;;;;5120122;27;20232;-66
2021/07/28 13:40:03;;;;;;;11.55;5.53;;;34.10;92.20;;;;;;5124274;27;20194;-67
2021/07/28 13:42:50;;;;;;;15.50;5.50;;;34.00;90.00;;;;;;5128351;27;20252;-67
2021/07/28 13:45:38;;;;;;;13.93;5.55;;;34.00;90.50;;;;;;5123305;27;20226;-67
2021/07/28 13:48:30;;;;;;;17.55;5.80;;;34.10;91.40;;;;;;5128710;27;20194;-66
2021/07/28 13:51:17;;;;;;;14.73;5.18;;;33.90;92.20;;;;;;5125893;27;20256;-66
2021/07/28 13:54:05;;;;;;;14.63;5.30;;;34.00;92.10;;;;;;5126418;27;20202;-66
2021/07/28 13:57:15;;;;;;;14.75;5.65;;;33.50;93.20;;;;;;5130608;27;20538;-67
2021/07/28 14:00:02;;;;;;;17.98;5.68;;;33.40;91.10;;;;;;5113412;28;20665;-66
2021/07/28 14:02:50;;;;;;;17.45;5.55;;;33.70;92.10;;;;;;5113020;28;20222;-66
2021/07/28 14:05:39;;;;;;;16.13;5.47;;;34.00;91.60;;;;;;5128954;27;20236;-67
2021/07/28 14:08:26;;;;;;;12.48;5.65;;;34.00;92.80;;;;;;5118502;27;20198;-66
2021/07/28 14:11:14;;;;;;;17.05;5.85;;;34.40;92.50;;;;;;5120732;27;20206;-66
2021/07/28 14:14:02;;;;;;;13.50;5.38;;;34.70;91.60;;;;;;5125637;27;20278;-66
2021/07/28 14:16:50;;;;;;;17.73;5.70;;;34.60;88.20;;;;;;5122499;27;20202;-66
2021/07/28 14:19:38;;;;;;;15.45;5.60;;;34.60;91.40;;;;;;5123566;27;20658;-66
2021/07/28 14:22:27;;;;;;;13.05;5.70;;;34.20;91.00;;;;;;5113072;27;20215;-66
2021/07/28 14:25:15;;;;;;;16.63;5.95;;;34.30;91.80;;;;;;5129407;27;20613;-66
2021/07/28 14:28:05;;;;;;;15.68;5.47;;;34.30;90.60;;;;;;5130383;27;20275;-66